createdAt,value
2022-11-23T00:01:39.473Z,8.20
2022-11-23T00:04:09.380Z,8.07
2022-11-23T00:06:37.974Z,7.97
2022-11-23T00:09:06.588Z,8.11
2022-11-23T00:11:36.342Z,8.14
2022-11-23T00:14:04.953Z,8.11
2022-11-23T00:16:34.480Z,8.26
2022-11-23T00:19:03.624Z,8.19
2022-11-23T00:21:33.804Z,8.22
2022-11-23T00:24:02.448Z,8.23
2022-11-23T00:26:30.993Z,8.23
2022-11-23T00:28:59.631Z,8.19
2022-11-23T00:31:28.541Z,8.19
2022-11-23T00:33:58.897Z,8.22
2022-11-23T00:36:28.049Z,8.25
2022-11-23T00:38:57.827Z,8.40
2022-11-23T00:41:28.077Z,8.42
2022-11-23T00:43:56.359Z,8.53
2022-11-23T00:46:25.822Z,8.38
2022-11-23T00:48:55.297Z,8.46
2022-11-23T00:51:27.104Z,8.45
2022-11-23T00:53:55.279Z,8.50
2022-11-23T00:56:25.441Z,8.59
2022-11-23T00:58:55.103Z,8.47
2022-11-23T01:01:25.404Z,8.40
2022-11-23T01:03:55.925Z,8.33
2022-11-23T01:06:27.894Z,8.45
2022-11-23T01:08:58.380Z,8.51
2022-11-23T01:11:28.896Z,8.62
2022-11-23T01:13:57.222Z,8.49
2022-11-23T01:16:28.762Z,8.44
2022-11-23T01:18:57.788Z,8.53
2022-11-23T01:21:29.484Z,8.44
2022-11-23T01:23:58.351Z,8.38
2022-11-23T01:26:26.948Z,8.40
2022-11-23T01:28:58.528Z,8.57
2022-11-23T01:31:27.631Z,8.38
2022-11-23T01:33:56.844Z,8.49
2022-11-23T01:36:28.055Z,8.51
2022-11-23T01:38:56.733Z,8.58
2022-11-23T01:41:26.884Z,8.66
2022-11-23T01:43:55.604Z,8.66
2022-11-23T01:46:23.891Z,8.60
2022-11-23T01:48:56.765Z,8.69
2022-11-23T01:51:30.587Z,8.75
2022-11-23T01:54:03.710Z,8.84
2022-11-23T01:56:36.680Z,8.70
2022-11-23T01:59:10.846Z,8.70
2022-11-23T02:01:39.098Z,8.65
2022-11-23T02:04:10.137Z,8.65
2022-11-23T02:06:42.237Z,8.82
2022-11-23T02:09:10.351Z,8.72
2022-11-23T02:11:38.959Z,8.73
2022-11-23T02:14:07.076Z,8.70
2022-11-23T02:16:35.139Z,8.78
2022-11-23T02:19:03.170Z,8.66
2022-11-23T02:21:31.295Z,8.73
2022-11-23T02:24:07.272Z,8.69
2022-11-23T02:26:39.894Z,8.74
2022-11-23T02:29:12.991Z,8.78
2022-11-23T02:31:41.238Z,8.83
2022-11-23T02:34:09.393Z,8.81
2022-11-23T02:36:42.040Z,8.84
2022-11-23T02:39:12.996Z,8.81
2022-11-23T02:41:45.102Z,8.93
2022-11-23T02:44:26.560Z,8.86
2022-11-23T02:46:55.500Z,8.76
2022-11-23T02:49:23.738Z,8.83
2022-11-23T02:51:52.739Z,8.88
2022-11-23T02:54:21.375Z,8.95
2022-11-23T02:56:51.114Z,8.79
2022-11-23T02:59:20.041Z,8.80
2022-11-23T03:01:48.843Z,8.97
2022-11-23T03:04:16.927Z,8.99
2022-11-23T03:06:46.216Z,8.96
2022-11-23T03:09:14.650Z,8.87
2022-11-23T03:11:43.241Z,8.91
2022-11-23T03:14:12.761Z,8.95
2022-11-23T03:16:50.493Z,8.94
2022-11-23T03:19:20.046Z,9.01
2022-11-23T03:21:49.578Z,9.08
2022-11-23T03:24:17.864Z,9.04
2022-11-23T03:26:47.492Z,8.88
2022-11-23T03:29:25.664Z,8.85
2022-11-23T03:31:55.691Z,8.88
2022-11-23T03:34:24.453Z,8.85
2022-11-23T03:36:53.229Z,8.66
2022-11-23T03:39:21.994Z,8.61
2022-11-23T03:42:28.195Z,8.71
2022-11-23T03:44:58.951Z,8.59
2022-11-23T03:47:27.176Z,8.53
2022-11-23T03:49:55.396Z,8.67
2022-11-23T03:52:23.459Z,8.48
2022-11-23T03:54:51.607Z,8.34
2022-11-23T03:57:19.796Z,8.33
2022-11-23T03:59:50.133Z,8.39
2022-11-23T04:02:20.073Z,8.40
2022-11-23T04:04:59.451Z,8.34
2022-11-23T04:07:50.651Z,8.41
2022-11-23T04:10:20.525Z,8.45
2022-11-23T04:13:14.905Z,8.38
2022-11-23T04:15:42.916Z,8.32
2022-11-23T04:18:12.754Z,8.38
2022-11-23T04:20:41.068Z,8.40
2022-11-23T04:23:13.109Z,8.31
2022-11-23T04:25:42.116Z,8.24
2022-11-23T04:28:10.838Z,8.22
2022-11-23T04:30:39.380Z,8.31
2022-11-23T04:33:14.068Z,8.28
2022-11-23T04:35:43.525Z,8.23
2022-11-23T04:38:14.163Z,8.14
2022-11-23T04:41:30.161Z,8.29
2022-11-23T04:43:59.807Z,8.23
2022-11-23T04:46:28.790Z,8.32
2022-11-23T04:49:01.326Z,8.22
2022-11-23T04:51:30.009Z,8.18
2022-11-23T04:53:58.552Z,8.17
2022-11-23T04:56:29.700Z,8.27
2022-11-23T04:58:58.865Z,8.30
2022-11-23T05:01:27.388Z,8.24
2022-11-23T05:04:18.074Z,8.19
2022-11-23T05:06:48.555Z,8.12
2022-11-23T05:09:17.283Z,8.20
2022-11-23T05:12:01.909Z,8.13
2022-11-23T05:14:32.161Z,8.12
2022-11-23T05:17:00.652Z,8.12
2022-11-23T05:19:30.968Z,8.20
2022-11-23T05:21:59.984Z,8.14
2022-11-23T05:24:29.331Z,8.22
2022-11-23T05:27:11.574Z,8.23
2022-11-23T05:29:42.072Z,8.14
2022-11-23T05:32:10.497Z,8.30
2022-11-23T05:34:41.326Z,8.13
2022-11-23T05:37:11.956Z,8.21
2022-11-23T05:39:50.162Z,8.26
2022-11-23T05:42:19.776Z,8.29
2022-11-23T05:44:52.198Z,8.18
2022-11-23T05:47:26.125Z,8.22
2022-11-23T05:49:56.016Z,8.10
2022-11-23T05:52:28.359Z,8.09
2022-11-23T05:54:57.141Z,8.23
2022-11-23T05:57:34.582Z,8.26
2022-11-23T06:00:12.443Z,8.35
2022-11-23T06:03:00.855Z,8.31
2022-11-23T06:05:32.354Z,8.16
2022-11-23T06:08:01.036Z,8.30
2022-11-23T06:10:29.652Z,8.20
2022-11-23T06:13:04.021Z,8.18
2022-11-23T06:15:33.287Z,8.19
2022-11-23T06:18:02.352Z,8.22
2022-11-23T06:20:40.957Z,8.22
2022-11-23T06:23:09.197Z,8.20
2022-11-23T06:25:38.739Z,8.31
2022-11-23T06:28:13.205Z,8.16
2022-11-23T06:30:45.203Z,8.09
2022-11-23T06:33:14.710Z,8.24
2022-11-23T06:36:17.459Z,8.09
2022-11-23T06:38:50.077Z,8.25
2022-11-23T06:41:25.973Z,8.15
2022-11-23T06:43:57.806Z,8.01
2022-11-23T06:46:36.701Z,8.15
2022-11-23T06:49:04.786Z,8.08
2022-11-23T06:51:34.442Z,8.10
2022-11-23T06:54:02.830Z,8.15
2022-11-23T06:56:32.641Z,8.11
2022-11-23T06:59:01.070Z,8.09
2022-11-23T07:01:29.312Z,8.04
2022-11-23T07:04:03.295Z,8.13
2022-11-23T07:06:40.968Z,8.20
2022-11-23T07:09:16.199Z,8.14
2022-11-23T07:11:51.823Z,8.18
2022-11-23T07:14:20.085Z,8.07
2022-11-23T07:16:51.259Z,8.03
2022-11-23T07:19:20.254Z,8.11
2022-11-23T07:21:50.646Z,8.19
2022-11-23T07:24:18.892Z,8.07
2022-11-23T07:26:47.118Z,8.05
2022-11-23T07:29:15.958Z,8.08
2022-11-23T07:31:44.186Z,8.05
2022-11-23T07:34:12.622Z,8.14
2022-11-23T07:36:40.850Z,8.16
2022-11-23T07:39:10.781Z,8.21
2022-11-23T07:41:38.985Z,8.11
2022-11-23T07:44:14.979Z,8.26
2022-11-23T07:46:46.050Z,8.27
2022-11-23T07:49:14.208Z,8.25
2022-11-23T07:51:42.509Z,8.54
2022-11-23T07:54:12.257Z,8.47
2022-11-23T07:56:40.414Z,8.32
2022-11-23T07:59:08.647Z,8.27
2022-11-23T08:01:36.755Z,8.49
2022-11-23T08:04:05.096Z,8.43
2022-11-23T08:06:33.378Z,8.40
2022-11-23T08:09:01.920Z,8.42
2022-11-23T08:11:31.493Z,8.37
2022-11-23T08:14:00.164Z,8.49
2022-11-23T08:16:28.459Z,8.42
2022-11-23T08:18:56.779Z,8.46
2022-11-23T08:21:25.257Z,8.59
2022-11-23T08:23:53.531Z,8.61
2022-11-23T08:26:21.833Z,8.54
2022-11-23T08:28:51.611Z,8.68
2022-11-23T08:31:19.907Z,8.64
2022-11-23T08:33:47.990Z,8.80
2022-11-23T08:36:16.429Z,8.80
2022-11-23T08:38:44.663Z,8.84
2022-11-23T08:41:12.961Z,8.91
2022-11-23T08:43:41.501Z,9.23
2022-11-23T08:46:11.563Z,9.26
2022-11-23T08:48:39.835Z,9.18
2022-11-23T08:51:10.158Z,9.53
2022-11-23T08:53:39.152Z,9.72
2022-11-23T08:56:09.097Z,9.75
2022-11-23T08:58:38.089Z,9.73
2022-11-23T09:01:09.780Z,9.79
2022-11-23T09:03:39.811Z,10.09
2022-11-23T09:06:08.705Z,10.19
2022-11-23T09:08:37.416Z,10.23
2022-11-23T09:11:07.849Z,10.28
2022-11-23T09:13:37.169Z,10.21
2022-11-23T09:16:07.411Z,10.31
2022-11-23T09:18:36.799Z,10.28
2022-11-23T09:21:07.138Z,10.08
2022-11-23T09:23:35.513Z,10.28
2022-11-23T09:26:05.694Z,10.31
2022-11-23T09:28:34.688Z,9.97
2022-11-23T09:31:05.319Z,10.00
2022-11-23T09:33:33.586Z,10.00
2022-11-23T09:36:03.257Z,10.13
2022-11-23T09:38:55.243Z,9.98
2022-11-23T09:41:41.253Z,9.85
2022-11-23T09:44:19.869Z,9.81
2022-11-23T09:47:15.212Z,9.92
2022-11-23T09:49:54.068Z,9.93
2022-11-23T09:52:25.828Z,9.85
2022-11-23T09:55:00.063Z,9.89
2022-11-23T09:57:32.060Z,9.97
2022-11-23T10:00:04.162Z,9.91
2022-11-23T10:02:37.279Z,9.71
2022-11-23T10:05:06.647Z,9.86
2022-11-23T10:07:48.503Z,9.80
2022-11-23T10:10:36.023Z,9.84
2022-11-23T10:13:14.595Z,9.95
2022-11-23T10:15:54.466Z,9.71
2022-11-23T10:18:31.784Z,9.95
2022-11-23T10:21:07.649Z,9.87
2022-11-23T10:23:55.087Z,10.05
2022-11-23T10:26:30.426Z,10.05
2022-11-23T10:29:04.182Z,9.94
2022-11-23T10:31:32.747Z,9.95
2022-11-23T10:34:09.283Z,10.06
2022-11-23T10:36:37.984Z,10.00
2022-11-23T10:39:17.730Z,10.09
2022-11-23T10:41:47.925Z,10.20
2022-11-23T10:44:32.068Z,10.12
2022-11-23T10:47:01.117Z,10.05
2022-11-23T10:49:31.131Z,10.12
2022-11-23T10:52:04.139Z,10.20
2022-11-23T10:54:42.360Z,10.35
2022-11-23T10:57:31.404Z,10.40
2022-11-23T11:00:01.518Z,10.34
2022-11-23T11:02:30.856Z,10.39
2022-11-23T11:05:40.258Z,10.38
2022-11-23T11:08:15.797Z,10.57
2022-11-23T11:10:50.143Z,10.57
2022-11-23T11:13:30.006Z,10.67
2022-11-23T11:16:00.307Z,10.55
2022-11-23T11:18:30.954Z,10.44
2022-11-23T11:21:02.809Z,10.45
2022-11-23T11:23:32.545Z,10.66
2022-11-23T11:26:07.432Z,10.77
2022-11-23T11:28:44.421Z,10.93
2022-11-23T11:31:45.165Z,10.78
2022-11-23T11:34:21.386Z,10.83
2022-11-23T11:36:55.588Z,10.75
2022-11-23T11:39:30.042Z,10.83
2022-11-23T11:42:01.783Z,10.98
2022-11-23T11:44:37.507Z,10.79
2022-11-23T11:47:15.416Z,10.72
2022-11-23T11:49:49.956Z,10.64
2022-11-23T11:52:22.309Z,10.45
2022-11-23T11:54:56.885Z,10.50
2022-11-23T11:57:29.483Z,10.36
2022-11-23T12:00:06.762Z,10.51
2022-11-23T12:02:41.305Z,10.32
2022-11-23T12:05:19.061Z,10.23
2022-11-23T12:07:54.852Z,10.41
2022-11-23T12:10:45.072Z,10.35
2022-11-23T12:13:37.779Z,10.40
2022-11-23T12:16:41.006Z,10.47
2022-11-23T12:19:20.828Z,10.26
2022-11-23T12:22:26.151Z,10.34
2022-11-23T12:29:43.127Z,10.22
2022-11-23T12:33:01.057Z,10.28
2022-11-23T12:36:34.256Z,10.19
2022-11-23T12:39:15.704Z,10.38
2022-11-23T12:41:53.678Z,10.23
2022-11-23T12:45:02.232Z,10.22
2022-11-23T12:47:49.955Z,10.48
2022-11-23T12:50:31.827Z,10.40
2022-11-23T12:53:09.709Z,10.48
2022-11-23T12:55:48.245Z,10.61
2022-11-23T12:58:24.612Z,10.45
2022-11-23T13:00:56.445Z,10.57
2022-11-23T13:03:57.560Z,10.49
2022-11-23T13:07:27.438Z,10.51
2022-11-23T13:10:24.063Z,10.37
2022-11-23T13:13:12.460Z,10.33
2022-11-23T13:16:01.511Z,10.38
2022-11-23T13:18:45.386Z,10.22
2022-11-23T13:21:23.481Z,10.31
2022-11-23T13:23:55.359Z,10.23
2022-11-23T13:26:25.987Z,10.34
2022-11-23T13:28:58.452Z,10.17
2022-11-23T13:31:30.443Z,10.30
2022-11-23T13:34:00.963Z,10.11
2022-11-23T13:37:10.409Z,10.11
2022-11-23T13:40:08.142Z,10.27
2022-11-23T13:42:37.020Z,10.20
2022-11-23T13:45:36.884Z,10.12
2022-11-23T13:48:54.897Z,9.94
2022-11-23T13:51:11.096Z,10.14
2022-11-23T13:53:42.371Z,9.99
2022-11-23T13:56:23.954Z,9.87
2022-11-23T13:58:53.820Z,9.80
2022-11-23T14:02:01.141Z,9.74
2022-11-23T14:04:30.699Z,9.77
2022-11-23T14:07:03.774Z,9.69
2022-11-23T14:09:37.351Z,9.89
2022-11-23T14:12:14.328Z,9.78
2022-11-23T14:14:57.580Z,9.71
2022-11-23T14:17:51.912Z,9.77
2022-11-23T14:20:42.428Z,9.60
2022-11-23T14:23:48.974Z,9.69
2022-11-23T14:26:31.873Z,9.64
2022-11-23T14:29:32.415Z,9.67
2022-11-23T14:32:17.135Z,9.41
2022-11-23T14:34:56.818Z,9.50
2022-11-23T14:37:34.075Z,9.58
2022-11-23T14:40:14.265Z,9.61
2022-11-23T14:42:46.808Z,9.68
2022-11-23T14:45:16.772Z,9.77
2022-11-23T14:47:44.881Z,9.68
2022-11-23T14:50:25.553Z,9.74
2022-11-23T14:52:55.106Z,9.63
2022-11-23T14:55:26.166Z,9.68
2022-11-23T14:57:58.379Z,9.66
2022-11-23T15:00:32.012Z,9.60
2022-11-23T15:03:27.196Z,9.65
2022-11-23T15:06:12.840Z,9.81
2022-11-23T15:08:49.746Z,9.76
2022-11-23T15:11:22.337Z,9.56
2022-11-23T15:13:52.523Z,9.63
2022-11-23T15:16:22.416Z,9.65
2022-11-23T15:18:51.996Z,9.63
2022-11-23T15:21:27.540Z,9.59
2022-11-23T15:23:58.321Z,9.68
2022-11-23T15:26:47.296Z,9.67
2022-11-23T15:29:34.604Z,9.67
2022-11-23T15:32:29.263Z,9.75
2022-11-23T15:34:55.592Z,9.69
2022-11-23T15:37:27.170Z,9.63
2022-11-23T15:39:57.116Z,9.57
2022-11-23T15:42:27.295Z,9.48
2022-11-23T15:47:43.731Z,9.41
2022-11-23T15:50:15.145Z,9.38
2022-11-23T15:52:51.309Z,9.10
2022-11-23T15:54:53.525Z,9.46
2022-11-23T15:55:23.354Z,8.96
2022-11-23T15:58:09.640Z,8.98
2022-11-23T16:00:39.448Z,9.05
2022-11-23T16:03:32.077Z,8.87
2022-11-23T16:06:31.127Z,8.93
2022-11-23T16:14:11.278Z,8.79
2022-11-23T16:17:03.887Z,8.62
2022-11-23T16:20:13.356Z,8.65
2022-11-23T16:22:50.204Z,8.69
2022-11-23T16:25:26.012Z,8.66
2022-11-23T16:27:59.281Z,8.44
2022-11-23T16:30:37.217Z,8.52
2022-11-23T16:33:07.317Z,8.66
2022-11-23T16:35:35.619Z,8.44
2022-11-23T16:38:03.875Z,8.68
2022-11-23T16:40:32.403Z,8.34
2022-11-23T16:43:00.868Z,8.36
2022-11-23T16:45:32.235Z,8.47
2022-11-23T16:48:02.169Z,8.43
2022-11-23T16:50:31.769Z,8.49
2022-11-23T16:53:03.453Z,8.21
2022-11-23T16:55:31.877Z,8.17
2022-11-23T16:58:00.054Z,8.37
2022-11-23T17:00:28.946Z,8.38
2022-11-23T17:03:01.634Z,8.13
2022-11-23T17:05:29.808Z,8.12
2022-11-23T17:07:58.246Z,8.26
2022-11-23T17:10:26.799Z,8.11
2022-11-23T17:13:03.748Z,8.15
2022-11-23T17:15:38.737Z,8.11
2022-11-23T17:23:03.526Z,8.01
2022-11-23T17:25:31.464Z,7.91
2022-11-23T17:28:01.271Z,8.02
2022-11-23T17:30:29.825Z,8.00
2022-11-23T17:32:57.623Z,7.93
2022-11-23T17:35:25.858Z,8.15
2022-11-23T17:37:53.860Z,8.04
2022-11-23T17:40:24.571Z,8.10
2022-11-23T17:42:52.616Z,8.02
2022-11-23T17:45:20.764Z,8.14
2022-11-23T17:47:48.942Z,8.05
2022-11-23T17:50:19.479Z,8.15
2022-11-23T17:52:47.906Z,8.13
2022-11-23T17:55:16.774Z,8.04
2022-11-23T17:57:45.955Z,8.04
2022-11-23T18:00:17.981Z,8.02
2022-11-23T18:02:46.080Z,8.02
2022-11-23T18:05:17.972Z,8.02
2022-11-23T18:07:49.423Z,7.83
2022-11-23T18:10:17.633Z,7.80
2022-11-23T18:12:46.890Z,7.85
2022-11-23T18:15:14.774Z,7.82
2022-11-23T18:17:42.921Z,7.80
2022-11-23T18:20:11.683Z,7.83
2022-11-23T18:22:39.614Z,7.98
2022-11-23T18:25:08.005Z,7.82
2022-11-23T18:27:35.901Z,7.80
2022-11-23T18:30:10.616Z,7.91
2022-11-23T18:32:38.991Z,7.91
2022-11-23T18:35:09.354Z,7.88
2022-11-23T18:37:38.197Z,7.96
2022-11-23T18:40:07.525Z,7.83
2022-11-23T18:42:35.520Z,7.87
2022-11-23T18:45:05.189Z,7.91
2022-11-23T18:47:33.202Z,7.79
2022-11-23T18:50:06.153Z,7.67
2022-11-23T18:52:36.015Z,7.85
2022-11-23T18:55:04.556Z,7.90
2022-11-23T18:57:37.946Z,7.78
2022-11-23T19:00:10.160Z,7.92
2022-11-23T19:02:38.861Z,7.80
2022-11-23T19:05:07.772Z,7.68
2022-11-23T19:07:35.861Z,7.63
2022-11-23T19:10:03.893Z,7.86
2022-11-23T19:12:31.828Z,7.77
2022-11-23T19:15:00.196Z,7.82
2022-11-23T19:17:29.742Z,7.70
2022-11-23T19:19:58.026Z,7.79
2022-11-23T19:22:29.455Z,7.79
2022-11-23T19:24:57.594Z,7.82
2022-11-23T19:27:25.737Z,7.74
2022-11-23T19:29:53.922Z,7.71
2022-11-23T19:32:22.262Z,7.73
2022-11-23T19:34:51.830Z,7.86
2022-11-23T19:37:19.915Z,7.84
2022-11-23T19:39:48.043Z,7.83
2022-11-23T19:42:16.172Z,7.83
2022-11-23T19:44:44.544Z,7.96
2022-11-23T19:47:17.505Z,7.78
2022-11-23T19:49:48.120Z,7.72
2022-11-23T19:52:18.168Z,7.72
2022-11-23T19:54:47.237Z,7.66
2022-11-23T19:57:15.611Z,7.62
2022-11-23T19:59:43.726Z,7.68
2022-11-23T20:02:23.302Z,7.75
2022-11-23T20:04:51.945Z,7.74
2022-11-23T20:07:23.763Z,7.81
2022-11-23T20:09:51.745Z,7.67
2022-11-23T20:12:20.845Z,7.70
2022-11-23T20:14:48.971Z,7.66
2022-11-23T20:17:22.825Z,7.58
2022-11-23T20:19:58.801Z,7.46
2022-11-23T20:22:28.263Z,7.47
2022-11-23T20:24:56.344Z,7.54
2022-11-23T20:27:24.292Z,7.59
2022-11-23T20:29:52.195Z,7.41
2022-11-23T20:32:20.445Z,7.47
2022-11-23T20:34:48.815Z,7.41
2022-11-23T20:37:17.056Z,7.51
2022-11-23T20:39:46.657Z,7.32
2022-11-23T20:42:15.806Z,7.57
2022-11-23T20:44:44.523Z,7.42
2022-11-23T20:47:12.451Z,7.28
2022-11-23T20:49:40.635Z,7.39
2022-11-23T20:52:08.797Z,7.41
2022-11-23T20:54:36.981Z,7.29
2022-11-23T20:57:06.828Z,7.30
2022-11-23T20:59:35.198Z,7.30
2022-11-23T21:02:03.608Z,7.43
2022-11-23T21:04:31.937Z,7.43
2022-11-23T21:07:00.294Z,7.36
2022-11-23T21:09:28.290Z,7.22
2022-11-23T21:12:13.692Z,7.48
2022-11-23T21:14:43.223Z,7.36
2022-11-23T21:17:11.230Z,7.31
2022-11-23T21:19:40.825Z,7.32
2022-11-23T21:22:10.993Z,7.23
2022-11-23T21:24:39.227Z,7.25
2022-11-23T21:27:09.760Z,7.23
2022-11-23T21:29:38.093Z,7.29
2022-11-23T21:32:07.712Z,7.27
2022-11-23T21:34:36.125Z,7.30
2022-11-23T21:37:04.506Z,7.22
2022-11-23T21:39:33.236Z,7.23
2022-11-23T21:42:01.554Z,7.23
2022-11-23T21:44:29.837Z,7.21
2022-11-23T21:46:58.239Z,7.25
2022-11-23T21:49:28.788Z,7.20
2022-11-23T21:51:56.937Z,7.23
2022-11-23T21:54:26.073Z,7.13
2022-11-23T21:56:54.129Z,7.14
2022-11-23T21:59:23.239Z,7.04
2022-11-23T22:01:51.456Z,7.12
2022-11-23T22:04:19.617Z,7.04
2022-11-23T22:06:49.161Z,7.14
2022-11-23T22:09:17.510Z,7.05
2022-11-23T22:11:47.545Z,7.06
2022-11-23T22:14:19.405Z,7.05
2022-11-23T22:16:49.894Z,6.91
2022-11-23T22:19:19.027Z,7.02
2022-11-23T22:21:48.709Z,7.16
2022-11-23T22:24:19.022Z,7.03
2022-11-23T22:26:47.991Z,7.09
2022-11-23T22:29:17.068Z,7.06
2022-11-23T22:31:48.178Z,7.20
2022-11-23T22:34:17.045Z,7.09
2022-11-23T22:36:45.183Z,7.13
2022-11-23T22:39:14.799Z,7.19
2022-11-23T22:41:43.130Z,7.19
2022-11-23T22:44:11.592Z,7.27
2022-11-23T22:46:40.567Z,7.38
2022-11-23T22:49:08.724Z,7.30
2022-11-23T22:51:37.072Z,7.32
2022-11-23T22:54:05.654Z,7.33
2022-11-23T22:56:35.260Z,7.36
2022-11-23T22:59:03.510Z,7.54
2022-11-23T23:01:32.258Z,7.52
2022-11-23T23:04:03.905Z,7.52
2022-11-23T23:06:34.950Z,7.65
2022-11-23T23:09:06.082Z,7.68
2022-11-23T23:11:37.071Z,7.65
2022-11-23T23:14:05.495Z,7.62
2022-11-23T23:16:34.107Z,7.57
2022-11-23T23:19:03.583Z,7.63
2022-11-23T23:21:31.838Z,7.71
2022-11-23T23:24:01.395Z,7.86
2022-11-23T23:26:30.221Z,7.78
2022-11-23T23:29:00.976Z,7.74
2022-11-23T23:31:30.924Z,7.67
2022-11-23T23:34:00.668Z,7.68
2022-11-23T23:36:29.905Z,7.68
2022-11-23T23:38:58.677Z,7.67
2022-11-23T23:41:26.709Z,7.62
2022-11-23T23:43:54.662Z,7.69
2022-11-23T23:46:24.286Z,7.72
2022-11-23T23:48:52.631Z,7.65
2022-11-23T23:51:22.786Z,7.56
2022-11-23T23:54:00.096Z,7.58
2022-11-23T23:56:53.407Z,7.78
2022-11-23T23:59:30.063Z,7.74
